Time;durP1;ratioP1;P1;durP2;ratioP2;P2;SDS_P1;SDS_P2;PMS_P1;PMS_P2;Temp;Humidity;BMP_temperature;BMP_pressure;BME280_temperature;BME280_humidity;BME280_pressure;Samples;Min_cycle;Max_cycle;Signal;HPM_P1;HPM_P2
2021/12/10 00:00:06;;;;;;;;;;;;;;;21.32;26.18;94453.47;1033361;28;1082;-48
2021/12/10 00:00:39;;;;;;;;;;;;;;;21.31;25.84;94444.78;1027219;28;1145;-51
2021/12/10 00:01:11;;;;;;;;;;;;;;;21.33;26.35;94455.03;1027993;28;1262;-51
2021/12/10 00:01:49;;;;;;;;;;;;;;;21.33;26.11;94453.16;1026052;28;2103;-50
2021/12/10 00:02:20;;;;;;;;;;;;;;;21.34;25.88;94452.09;1028031;28;1177;-49
2021/12/10 00:02:50;;;;;;;;;;;;;;;21.37;26.91;94450.69;1031344;28;1263;-53
2021/12/10 00:03:40;;;;;;;;;;;;;;;21.36;27.11;94449.91;1033133;28;1128;-52
2021/12/10 00:04:11;;;;;;;;;;;;;;;21.38;26.38;94457.50;1030207;28;1645;-52
2021/12/10 00:04:41;;;;;;;;;;;;;;;21.38;26.38;94446.97;1033112;28;1191;-49
2021/12/10 00:05:31;;;;;;;;;;;;;;;21.36;26.38;94447.28;1032695;28;1285;-52
2021/12/10 00:06:04;;;;;;;;;;;;;;;21.38;26.05;94441.69;1033309;28;987;-51
2021/12/10 00:06:42;;;;;;;;;;;;;;;21.38;26.22;94444.31;1028976;28;2133;-48
2021/12/10 00:07:17;;;;;;;;;;;;;;;21.36;26.24;94442.00;1032622;28;1152;-50
2021/12/10 00:07:47;;;;;;;;;;;;;;;21.35;26.42;94437.81;1031622;28;1132;-48
2021/12/10 00:08:18;;;;;;;;;;;;;;;21.34;26.28;94435.50;1030235;28;1843;-52
2021/12/10 00:08:51;;;;;;;;;;;;;;;21.35;26.92;94437.06;1029678;28;1933;-50
2021/12/10 00:09:32;;;;;;;;;;;;;;;21.34;26.30;94438.13;1030442;28;1149;-51
2021/12/10 00:10:04;;;;;;;;;;;;;;;21.33;26.14;94428.69;1033025;28;959;-50
2021/12/10 00:10:37;;;;;;;;;;;;;;;21.34;26.71;94424.94;1029734;28;2128;-53
2021/12/10 00:11:13;;;;;;;;;;;;;;;21.32;26.46;94422.63;1031814;28;1246;-48
2021/12/10 00:11:55;;;;;;;;;;;;;;;21.32;26.11;94427.13;1028664;28;1136;-50
2021/12/10 00:12:26;;;;;;;;;;;;;;;21.31;26.15;94423.69;1030765;28;1216;-53
2021/12/10 00:12:57;;;;;;;;;;;;;;;21.32;26.15;94421.84;1032173;28;1145;-49
2021/12/10 00:13:27;;;;;;;;;;;;;;;21.32;26.40;94424.47;1032040;28;1708;-52
2021/12/10 00:13:57;;;;;;;;;;;;;;;21.31;25.88;94421.06;1029558;28;1850;-49
2021/12/10 00:14:30;;;;;;;;;;;;;;;21.32;26.35;94421.84;1027973;28;1906;-53
2021/12/10 00:15:02;;;;;;;;;;;;;;;21.34;26.15;94423.09;1031417;28;1311;-51
2021/12/10 00:15:33;;;;;;;;;;;;;;;21.33;26.11;94418.88;1028904;28;2156;-49
2021/12/10 00:16:03;;;;;;;;;;;;;;;21.34;25.98;94417.03;1032642;28;1055;-49
2021/12/10 00:16:34;;;;;;;;;;;;;;;21.35;26.04;94415.97;1031305;28;1765;-50
2021/12/10 00:17:05;;;;;;;;;;;;;;;21.34;26.74;94424.94;1031620;28;888;-48
2021/12/10 00:17:35;;;;;;;;;;;;;;;21.34;26.30;94417.03;1025225;28;2242;-47
2021/12/10 00:18:07;;;;;;;;;;;;;;;21.36;26.49;94417.50;1028324;28;1067;-48
2021/12/10 00:18:41;;;;;;;;;;;;;;;21.33;26.25;94418.13;1025767;28;2070;-49
2021/12/10 00:19:56;;;;;;;;;;;;;;;21.34;26.05;94419.66;1031320;28;1176;-48
2021/12/10 00:20:27;;;;;;;;;;;;;;;21.34;26.44;94422.31;1028965;28;1007;-48
2021/12/10 00:20:59;;;;;;;;;;;;;;;21.34;26.25;94422.31;1030680;28;1247;-52
2021/12/10 00:21:29;;;;;;;;;;;;;;;21.31;26.02;94415.78;1028777;28;1106;-52
2021/12/10 00:22:00;;;;;;;;;;;;;;;21.33;26.50;94418.13;1032457;28;1046;-50
2021/12/10 00:22:38;;;;;;;;;;;;;;;21.33;26.53;94416.25;1031663;28;1393;-50
2021/12/10 00:23:10;;;;;;;;;;;;;;;21.33;26.32;94418.13;1030674;28;1176;-51
2021/12/10 00:23:46;;;;;;;;;;;;;;;21.33;26.35;94413.63;1029742;28;1117;-51
2021/12/10 00:24:16;;;;;;;;;;;;;;;21.34;26.43;94414.41;1031828;28;1545;-49
2021/12/10 00:24:47;;;;;;;;;;;;;;;21.33;26.17;94410.22;1032642;28;1105;-49
2021/12/10 00:25:20;;;;;;;;;;;;;;;21.33;26.36;94410.22;1032683;28;782;-52
2021/12/10 00:25:51;;;;;;;;;;;;;;;21.31;25.82;94410.53;1031356;28;2176;-51
2021/12/10 00:26:21;;;;;;;;;;;;;;;21.32;26.23;94406.03;1031596;28;1117;-51
2021/12/10 00:26:52;;;;;;;;;;;;;;;21.32;26.10;94404.19;1031630;28;1669;-51
2021/12/10 00:27:31;;;;;;;;;;;;;;;21.31;25.84;94404.50;1030270;28;1228;-49
2021/12/10 00:28:23;;;;;;;;;;;;;;;21.31;25.90;94410.53;1027405;28;1016;-53
2021/12/10 00:29:01;;;;;;;;;;;;;;;21.31;26.27;94404.50;1026895;28;1782;-48
2021/12/10 00:29:32;;;;;;;;;;;;;;;21.30;25.90;94397.66;1025066;28;2156;-52
2021/12/10 00:30:08;;;;;;;;;;;;;;;21.29;25.81;94401.38;1032234;28;976;-50
2021/12/10 00:30:47;;;;;;;;;;;;;;;21.30;26.36;94397.66;1032565;28;1359;-49
2021/12/10 00:32:29;;;;;;;;;;;;;;;21.31;26.34;94399.22;1031993;28;781;-51
2021/12/10 00:33:09;;;;;;;;;;;;;;;21.31;26.06;94401.84;1025951;28;1192;-50
2021/12/10 00:33:40;;;;;;;;;;;;;;;21.29;26.09;94394.25;1025278;28;1055;-52
2021/12/10 00:34:10;;;;;;;;;;;;;;;21.28;26.07;94394.56;1024834;28;2239;-52
2021/12/10 00:34:48;;;;;;;;;;;;;;;21.29;26.09;94393.47;1029327;28;1172;-50
2021/12/10 00:35:22;;;;;;;;;;;;;;;21.30;26.45;94387.13;1032450;28;1133;-52
2021/12/10 00:35:53;;;;;;;;;;;;;;;21.31;26.69;94391.31;1032327;28;1349;-50
2021/12/10 00:36:23;;;;;;;;;;;;;;;21.32;25.98;94392.84;1028644;28;1204;-50
2021/12/10 00:36:56;;;;;;;;;;;;;;;21.31;26.12;94389.44;1031595;28;1121;-49
2021/12/10 00:37:26;;;;;;;;;;;;;;;21.31;26.30;94393.94;1032680;28;951;-54
2021/12/10 00:37:56;;;;;;;;;;;;;;;21.31;26.58;94391.31;1029900;28;1153;-49
2021/12/10 00:38:27;;;;;;;;;;;;;;;21.30;25.85;94392.38;1027620;28;1018;-54
2021/12/10 00:38:59;;;;;;;;;;;;;;;21.31;26.38;94384.16;1029817;28;1768;-53
2021/12/10 00:39:31;;;;;;;;;;;;;;;21.31;26.09;94388.69;1032056;28;1114;-52
2021/12/10 00:40:02;;;;;;;;;;;;;;;21.31;26.36;94388.69;1032779;28;1174;-51
2021/12/10 00:40:32;;;;;;;;;;;;;;;21.31;26.02;94388.69;1031684;28;1131;-53
2021/12/10 00:41:03;;;;;;;;;;;;;;;21.29;26.23;94383.69;1031417;28;1058;-52
2021/12/10 00:41:33;;;;;;;;;;;;;;;21.30;26.75;94381.84;1028830;28;1160;-49
2021/12/10 00:42:05;;;;;;;;;;;;;;;21.30;26.32;94382.63;1032589;28;1075;-50
2021/12/10 00:42:36;;;;;;;;;;;;;;;21.31;26.71;94378.13;1030395;28;1873;-50
2021/12/10 00:43:06;;;;;;;;;;;;;;;21.31;26.18;94372.88;1028846;28;1386;-51
2021/12/10 00:43:37;;;;;;;;;;;;;;;21.29;25.97;94378.44;1028148;28;1550;-51
2021/12/10 00:44:07;;;;;;;;;;;;;;;21.30;26.27;94380.00;1026252;28;2177;-51
2021/12/10 00:44:37;;;;;;;;;;;;;;;21.30;26.38;94381.84;1027411;28;1774;-49
2021/12/10 00:45:09;;;;;;;;;;;;;;;21.29;26.17;94375.78;1028654;28;1026;-48
2021/12/10 00:45:39;;;;;;;;;;;;;;;21.31;26.36;94367.59;1032423;28;1121;-48
2021/12/10 00:46:10;;;;;;;;;;;;;;;21.32;25.95;94377.03;1029089;28;1115;-49
2021/12/10 00:46:40;;;;;;;;;;;;;;;21.30;26.09;94368.66;1029325;28;1093;-54
2021/12/10 00:47:10;;;;;;;;;;;;;;;21.31;26.85;94368.34;1028898;28;883;-53
2021/12/10 00:47:41;;;;;;;;;;;;;;;21.31;26.05;94370.22;1029843;28;1138;-51
2021/12/10 00:48:11;;;;;;;;;;;;;;;21.30;26.29;94371.31;1032735;28;765;-50
2021/12/10 00:48:42;;;;;;;;;;;;;;;21.30;26.68;94366.03;1031025;28;1655;-48
2021/12/10 00:49:12;;;;;;;;;;;;;;;21.31;26.63;94364.97;1029309;28;2168;-51
2021/12/10 00:49:42;;;;;;;;;;;;;;;21.32;26.44;94369.13;1030008;28;1066;-53
2021/12/10 00:50:15;;;;;;;;;;;;;;;21.30;26.08;94361.53;1032641;28;1085;-50
2021/12/10 00:50:47;;;;;;;;;;;;;;;21.30;26.45;94358.91;1030875;28;1140;-51
2021/12/10 00:51:17;;;;;;;;;;;;;;;21.31;26.37;94362.31;1028734;28;1015;-50
2021/12/10 00:51:47;;;;;;;;;;;;;;;21.29;25.98;94359.97;1030447;28;1218;-52
2021/12/10 00:52:18;;;;;;;;;;;;;;;21.28;26.10;94365.56;1032060;28;1191;-49
2021/12/10 00:52:48;;;;;;;;;;;;;;;21.28;26.30;94361.06;1032398;28;1109;-53
2021/12/10 00:53:19;;;;;;;;;;;;;;;21.28;26.16;94361.06;1029087;28;2199;-52
2021/12/10 00:53:49;;;;;;;;;;;;;;;21.29;26.00;94356.59;1027390;28;1833;-51
2021/12/10 00:54:19;;;;;;;;;;;;;;;21.29;26.31;94359.97;1027901;28;1987;-50
2021/12/10 00:54:50;;;;;;;;;;;;;;;21.29;26.39;94352.06;1028262;28;1129;-50
2021/12/10 00:55:20;;;;;;;;;;;;;;;21.28;25.86;94352.38;1027857;28;1145;-53
2021/12/10 00:55:51;;;;;;;;;;;;;;;21.29;26.68;94353.94;1031000;28;1440;-51
2021/12/10 00:56:21;;;;;;;;;;;;;;;21.28;26.25;94347.91;1028394;28;3274;-51
2021/12/10 00:56:51;;;;;;;;;;;;;;;21.30;26.31;94350.22;1030425;28;1122;-49
2021/12/10 00:57:23;;;;;;;;;;;;;;;21.31;26.50;94351.78;1027321;28;1814;-50
2021/12/10 00:57:55;;;;;;;;;;;;;;;21.31;25.88;94351.78;1027856;28;1525;-52
2021/12/10 00:58:26;;;;;;;;;;;;;;;21.31;26.10;94351.78;1031663;28;1298;-50
2021/12/10 00:58:56;;;;;;;;;;;;;;;21.30;25.99;94351.00;1029859;28;1708;-50
2021/12/10 00:59:26;;;;;;;;;;;;;;;21.31;26.19;94346.50;1027901;28;947;-50
2021/12/10 00:59:57;;;;;;;;;;;;;;;21.32;26.57;94348.03;1027570;28;1220;-48
2021/12/10 01:00:30;;;;;;;;;;;;;;;21.34;26.77;94345.88;1027487;28;1097;-48
2021/12/10 01:01:02;;;;;;;;;;;;;;;21.32;26.21;94343.56;1027466;28;1265;-50
2021/12/10 01:01:32;;;;;;;;;;;;;;;21.31;26.46;94347.25;1028732;28;1038;-49
2021/12/10 01:02:04;;;;;;;;;;;;;;;21.32;26.11;94350.69;1031846;28;1155;-49
2021/12/10 01:02:34;;;;;;;;;;;;;;;21.32;26.29;94348.03;1024012;28;1343;-52
2021/12/10 01:03:05;;;;;;;;;;;;;;;21.31;26.53;94341.25;1028369;28;1094;-51
2021/12/10 01:03:37;;;;;;;;;;;;;;;21.31;26.43;94349.16;1027822;28;1088;-51
2021/12/10 01:04:09;;;;;;;;;;;;;;;21.31;26.27;94343.88;1024643;28;1882;-50
2021/12/10 01:04:40;;;;;;;;;;;;;;;21.29;25.71;94336.25;1029551;28;1122;-52
2021/12/10 01:05:11;;;;;;;;;;;;;;;21.30;26.45;94339.66;1032635;28;804;-53
2021/12/10 01:05:42;;;;;;;;;;;;;;;21.30;26.43;94337.81;1031969;28;1196;-50
2021/12/10 01:06:13;;;;;;;;;;;;;;;21.31;26.55;94343.88;1023691;29;1679;-50
2021/12/10 01:06:45;;;;;;;;;;;;;;;21.29;26.30;94338.13;1025853;28;1122;-52
2021/12/10 01:07:16;;;;;;;;;;;;;;;21.31;26.94;94333.34;1027105;28;1848;-50
2021/12/10 01:07:47;;;;;;;;;;;;;;;21.32;26.52;94337.50;1028051;28;1140;-48
2021/12/10 01:08:17;;;;;;;;;;;;;;;21.30;26.06;94332.53;1028327;28;1252;-52
2021/12/10 01:08:50;;;;;;;;;;;;;;;21.30;26.09;94339.66;1026211;28;1885;-48
2021/12/10 01:09:22;;;;;;;;;;;;;;;21.30;26.86;94329.13;1026847;28;1944;-52
2021/12/10 01:09:53;;;;;;;;;;;;;;;21.30;26.30;94332.53;1028729;28;1121;-51
2021/12/10 01:10:25;;;;;;;;;;;;;;;21.30;26.32;94326.50;1030691;28;1198;-53
2021/12/10 01:11:01;;;;;;;;;;;;;;;21.30;26.45;94339.66;1029665;28;1176;-49
2021/12/10 01:11:32;;;;;;;;;;;;;;;21.29;26.10;94328.34;1027098;28;1538;-52
2021/12/10 01:12:05;;;;;;;;;;;;;;;21.27;26.06;94321.88;1025716;28;1648;-51
2021/12/10 01:12:37;;;;;;;;;;;;;;;21.27;26.52;94325.25;1024063;28;1172;-55
2021/12/10 01:13:11;;;;;;;;;;;;;;;21.28;26.55;94328.66;1024723;28;1021;-49
2021/12/10 01:13:43;;;;;;;;;;;;;;;21.29;26.42;94330.22;1029893;28;1764;-53
2021/12/10 01:14:17;;;;;;;;;;;;;;;21.29;26.50;94328.34;1030480;28;1981;-52
2021/12/10 01:23:42;;;;;;;;;;;;;;;21.30;26.18;94323.84;1031459;28;1051;-53
2021/12/10 01:23:59;;;;;;;;;;;;;;;21.30;26.37;94311.47;1029329;28;1181;-51
2021/12/10 01:25:40;;;;;;;;;;;;;;;21.27;26.02;94295.50;1032591;28;1220;-50
2021/12/10 01:27:01;;;;;;;;;;;;;;;21.27;26.06;94300.78;1028421;28;1961;-52
2021/12/10 01:27:10;;;;;;;;;;;;;;;21.27;26.28;94298.13;1020580;28;1990;-52
2021/12/10 01:27:41;;;;;;;;;;;;;;;21.27;26.14;94304.16;1027976;28;1089;-51
2021/12/10 01:28:11;;;;;;;;;;;;;;;21.27;26.42;94287.59;1024374;28;1310;-54
2021/12/10 01:28:43;;;;;;;;;;;;;;;21.28;26.18;94289.13;1025836;28;1210;-49
2021/12/10 01:29:14;;;;;;;;;;;;;;;21.28;26.72;94292.56;1029451;28;1950;-51
2021/12/10 01:29:45;;;;;;;;;;;;;;;21.29;26.00;94290.69;1029970;28;1137;-51
2021/12/10 01:30:17;;;;;;;;;;;;;;;21.28;26.33;94286.50;1032487;28;928;-53
2021/12/10 01:30:47;;;;;;;;;;;;;;;21.27;26.39;94291.00;1031964;28;1054;-50
2021/12/10 01:31:17;;;;;;;;;;;;;;;21.27;26.12;94287.59;1028534;28;1169;-48
2021/12/10 01:31:48;;;;;;;;;;;;;;;21.27;26.26;94288.34;1030568;28;1061;-52
2021/12/10 01:32:18;;;;;;;;;;;;;;;21.28;26.41;94284.66;1032199;28;1003;-51
2021/12/10 01:32:50;;;;;;;;;;;;;;;21.26;26.05;94281.53;1030482;28;1037;-50
2021/12/10 01:33:20;;;;;;;;;;;;;;;21.26;26.17;94281.53;1032306;28;974;-50
2021/12/10 01:33:52;;;;;;;;;;;;;;;21.25;26.21;94279.97;1032315;28;1136;-50
2021/12/10 01:34:22;;;;;;;;;;;;;;;21.26;26.01;94283.41;1029184;28;1977;-49
2021/12/10 01:34:52;;;;;;;;;;;;;;;21.26;26.26;94278.13;1031131;28;1129;-49
2021/12/10 01:35:25;;;;;;;;;;;;;;;21.25;25.94;94273.94;1032408;28;994;-49
2021/12/10 01:35:57;;;;;;;;;;;;;;;21.25;26.01;94279.97;1031123;28;1181;-48
2021/12/10 01:36:27;;;;;;;;;;;;;;;21.25;26.05;94276.56;1032363;28;754;-48
2021/12/10 01:36:58;;;;;;;;;;;;;;;21.25;25.96;94273.94;1031548;28;1354;-52
2021/12/10 01:37:28;;;;;;;;;;;;;;;21.25;26.19;94271.28;1031312;28;1330;-51
2021/12/10 01:37:58;;;;;;;;;;;;;;;21.24;25.87;94273.19;1031494;28;1124;-49
2021/12/10 01:38:31;;;;;;;;;;;;;;;21.25;26.20;94272.09;1031422;28;1082;-52
2021/12/10 01:39:03;;;;;;;;;;;;;;;21.27;26.68;94277.06;1030844;28;1341;-48
2021/12/10 01:39:34;;;;;;;;;;;;;;;21.28;26.35;94268.06;1030069;28;2124;-48
2021/12/10 01:40:06;;;;;;;;;;;;;;;21.28;26.23;94270.69;1032390;28;1026;-48
2021/12/10 01:40:37;;;;;;;;;;;;;;;21.27;26.46;94269.16;1032066;28;1086;-54
2021/12/10 01:41:09;;;;;;;;;;;;;;;21.28;26.16;94263.56;1029521;28;1204;-48
2021/12/10 01:41:42;;;;;;;;;;;;;;;21.26;26.18;94268.38;1029304;28;1063;-51
2021/12/10 01:42:16;;;;;;;;;;;;;;;21.27;26.62;94269.91;1031816;28;1886;-49
2021/12/10 01:42:49;;;;;;;;;;;;;;;21.27;26.11;94261.25;1031098;28;1432;-51
2021/12/10 01:43:23;;;;;;;;;;;;;;;21.25;25.77;94263.38;1032373;28;769;-48
2021/12/10 01:44:00;;;;;;;;;;;;;;;21.26;25.86;94264.94;1032342;28;1397;-52
2021/12/10 01:44:36;;;;;;;;;;;;;;;21.25;25.98;94260.75;1027228;28;1815;-49
2021/12/10 01:45:10;;;;;;;;;;;;;;;21.25;25.99;94258.13;1030604;28;1370;-51
2021/12/10 01:45:46;;;;;;;;;;;;;;;21.25;25.96;94266.03;1031674;28;1544;-48
2021/12/10 01:46:24;;;;;;;;;;;;;;;21.26;26.33;94263.09;1024879;28;1129;-49
2021/12/10 01:46:56;;;;;;;;;;;;;;;21.29;26.43;94262.47;1027729;28;1192;-50
2021/12/10 01:47:30;;;;;;;;;;;;;;;21.28;26.14;94258.28;1027188;28;1114;-49
2021/12/10 01:48:03;;;;;;;;;;;;;;;21.29;25.96;94264.34;1028285;28;1082;-50
2021/12/10 01:48:37;;;;;;;;;;;;;;;21.28;26.13;94257.50;1027891;28;1097;-50
2021/12/10 01:49:08;;;;;;;;;;;;;;;21.27;25.99;94255.97;1030594;28;1116;-51
2021/12/10 01:49:39;;;;;;;;;;;;;;;21.28;26.44;94254.88;1029026;28;1074;-49
2021/12/10 01:50:10;;;;;;;;;;;;;;;21.28;26.51;94250.38;1031161;28;2168;-51
2021/12/10 01:50:40;;;;;;;;;;;;;;;21.28;26.11;94249.59;1032025;28;1101;-50
2021/12/10 01:51:12;;;;;;;;;;;;;;;21.26;26.23;94246.50;1032101;28;1093;-52
2021/12/10 01:51:43;;;;;;;;;;;;;;;21.27;26.60;94248.06;1031042;28;1186;-50
2021/12/10 01:52:14;;;;;;;;;;;;;;;21.27;26.45;94246.19;1031776;28;1117;-48
2021/12/10 01:52:48;;;;;;;;;;;;;;;21.26;26.08;94243.88;1030132;28;1097;-50
2021/12/10 01:53:21;;;;;;;;;;;;;;;21.25;26.39;94240.47;1029842;28;1140;-48
2021/12/10 01:53:52;;;;;;;;;;;;;;;21.25;26.60;94242.31;1029349;28;1330;-49
2021/12/10 01:54:23;;;;;;;;;;;;;;;21.25;25.90;94237.81;1024615;28;1938;-49
2021/12/10 01:54:55;;;;;;;;;;;;;;;21.26;26.63;94241.25;1029739;28;1523;-52
2021/12/10 01:55:25;;;;;;;;;;;;;;;21.25;26.08;94239.66;1029488;28;2128;-50
2021/12/10 01:55:57;;;;;;;;;;;;;;;21.24;26.12;94236.28;1031879;28;1503;-52
2021/12/10 01:56:28;;;;;;;;;;;;;;;21.25;26.19;94237.03;1029374;28;832;-48
2021/12/10 01:57:00;;;;;;;;;;;;;;;21.25;26.35;94229.91;1030239;28;1141;-49
2021/12/10 01:57:31;;;;;;;;;;;;;;;21.25;26.36;94231.75;1028289;28;1122;-50
2021/12/10 01:58:02;;;;;;;;;;;;;;;21.23;25.58;94228.66;1032447;28;1046;-49
2021/12/10 01:58:32;;;;;;;;;;;;;;;21.24;26.53;94235.50;1030812;28;1184;-49
2021/12/10 01:59:05;;;;;;;;;;;;;;;21.24;26.10;94233.66;1028625;28;1279;-51
2021/12/10 01:59:36;;;;;;;;;;;;;;;21.24;26.17;94228.38;1028860;28;1148;-50
2021/12/10 02:00:07;;;;;;;;;;;;;;;21.23;26.58;94229.44;1027989;28;1394;-54
2021/12/10 02:00:38;;;;;;;;;;;;;;;21.24;26.27;94231.03;1028305;28;1882;-51
2021/12/10 02:01:10;;;;;;;;;;;;;;;21.24;26.47;94225.75;1032762;28;1002;-53
2021/12/10 02:01:42;;;;;;;;;;;;;;;21.27;26.34;94229.63;1032190;28;1014;-50
2021/12/10 02:02:22;;;;;;;;;;;;;;;21.25;26.22;94227.28;1029670;28;1239;-50
2021/12/10 02:02:52;;;;;;;;;;;;;;;21.26;26.14;94228.06;1031228;28;1153;-49
2021/12/10 02:03:23;;;;;;;;;;;;;;;21.27;26.25;94224.34;1032257;28;790;-49
2021/12/10 02:03:53;;;;;;;;;;;;;;;21.25;26.15;94226.50;1030109;28;1133;-53
2021/12/10 02:04:24;;;;;;;;;;;;;;;21.24;26.00;94223.13;1028600;28;1397;-49
2021/12/10 02:04:55;;;;;;;;;;;;;;;21.24;26.41;94228.38;1030473;28;1478;-51
2021/12/10 02:05:26;;;;;;;;;;;;;;;21.24;26.15;94225.75;1030043;28;1918;-49
2021/12/10 02:05:56;;;;;;;;;;;;;;;21.25;26.11;94229.13;1031127;28;1046;-48
2021/12/10 02:06:28;;;;;;;;;;;;;;;21.23;25.94;94224.19;1032427;28;868;-50
2021/12/10 02:07:00;;;;;;;;;;;;;;;21.24;25.96;94222.31;1030411;28;1116;-51
2021/12/10 02:07:31;;;;;;;;;;;;;;;21.25;26.58;94224.66;1028650;28;1891;-49
2021/12/10 02:08:03;;;;;;;;;;;;;;;21.26;26.24;94220.94;1032065;28;1039;-49
2021/12/10 02:08:48;;;;;;;;;;;;;;;21.25;26.55;94215.94;1025617;28;1374;-50
2021/12/10 02:09:19;;;;;;;;;;;;;;;21.26;26.35;94220.16;1027564;28;1215;-48
2021/12/10 02:09:55;;;;;;;;;;;;;;;21.27;26.46;94216.44;1027829;28;1330;-52
2021/12/10 02:10:29;;;;;;;;;;;;;;;21.26;25.86;94213.03;1028105;28;1930;-49
2021/12/10 02:11:10;;;;;;;;;;;;;;;21.24;26.19;94209.16;1027498;28;1207;-53
2021/12/10 02:11:43;;;;;;;;;;;;;;;21.24;26.32;94206.50;1025247;28;1161;-49
2021/12/10 02:12:19;;;;;;;;;;;;;;;21.24;26.00;94206.50;1023830;28;1188;-52
2021/12/10 02:12:58;;;;;;;;;;;;;;;21.24;26.04;94209.16;1025666;28;1202;-52
2021/12/10 02:13:29;;;;;;;;;;;;;;;21.24;26.33;94203.88;1029162;28;1505;-51
2021/12/10 02:14:05;;;;;;;;;;;;;;;21.24;26.21;94198.59;1024296;28;1662;-52
2021/12/10 02:14:35;;;;;;;;;;;;;;;21.25;26.43;94195.66;1023501;28;2065;-51
2021/12/10 02:15:06;;;;;;;;;;;;;;;21.28;26.69;94199.53;1025398;28;1872;-50
2021/12/10 02:15:37;;;;;;;;;;;;;;;21.28;26.07;94199.53;1021091;28;2158;-48
2021/12/10 02:16:24;;;;;;;;;;;;;;;21.26;26.13;94196.44;1028007;28;1458;-51
2021/12/10 02:16:59;;;;;;;;;;;;;;;21.27;26.31;94192.72;1022487;28;1869;-52
2021/12/10 02:17:42;;;;;;;;;;;;;;;21.25;26.19;94184.34;1027123;28;1371;-53
2021/12/10 02:18:13;;;;;;;;;;;;;;;21.27;26.62;94185.56;1027231;28;1805;-52
2021/12/10 02:18:45;;;;;;;;;;;;;;;21.26;26.01;94188.53;1024815;28;1538;-50
2021/12/10 02:19:36;;;;;;;;;;;;;;;21.25;26.49;94186.97;1027252;28;1114;-51
2021/12/10 02:20:28;;;;;;;;;;;;;;;21.24;26.07;94177.53;1026655;28;1220;-51
2021/12/10 02:21:09;;;;;;;;;;;;;;;21.25;26.39;94184.34;1028701;28;1914;-51
2021/12/10 02:21:40;;;;;;;;;;;;;;;21.26;25.80;94172.72;1031705;28;2183;-54
2021/12/10 02:22:10;;;;;;;;;;;;;;;21.24;25.99;94177.53;1026687;28;1722;-52
2021/12/10 02:22:41;;;;;;;;;;;;;;;21.24;26.36;94174.91;1027442;28;1082;-53
2021/12/10 02:23:12;;;;;;;;;;;;;;;21.24;26.40;94172.25;1028016;28;1165;-49
2021/12/10 02:23:50;;;;;;;;;;;;;;;21.23;26.35;94168.06;1027986;28;1203;-49
2021/12/10 02:24:24;;;;;;;;;;;;;;;21.23;26.18;94166.22;1026791;28;1765;-54
2021/12/10 02:24:54;;;;;;;;;;;;;;;21.23;26.17;94162.78;1027936;28;1153;-50
2021/12/10 02:25:37;;;;;;;;;;;;;;;21.23;26.30;94165.44;1027686;28;1152;-48
2021/12/10 02:26:09;;;;;;;;;;;;;;;21.22;26.09;94164.69;1026786;28;1830;-50
2021/12/10 02:26:45;;;;;;;;;;;;;;;21.22;25.95;94162.03;1032027;28;1724;-49
2021/12/10 02:27:28;;;;;;;;;;;;;;;21.23;26.47;94155.66;1027556;28;1389;-51
2021/12/10 02:28:13;;;;;;;;;;;;;;;21.24;26.07;94159.09;1021939;29;1376;-53
2021/12/10 02:29:03;;;;;;;;;;;;;;;21.23;25.81;94154.88;1021338;28;1463;-49
2021/12/10 02:29:35;;;;;;;;;;;;;;;21.22;26.26;94156.78;1027035;28;1153;-53
2021/12/10 02:30:07;;;;;;;;;;;;;;;21.23;26.11;94155.66;1028437;28;1003;-50
2021/12/10 02:30:39;;;;;;;;;;;;;;;21.23;26.00;94155.66;1028914;28;1153;-49
2021/12/10 02:31:09;;;;;;;;;;;;;;;21.23;26.26;94150.41;1027101;28;1899;-51
2021/12/10 02:31:40;;;;;;;;;;;;;;;21.23;26.43;94150.41;1027545;28;1172;-52
2021/12/10 02:32:10;;;;;;;;;;;;;;;21.22;26.14;94151.50;1027655;28;994;-48
2021/12/10 02:32:41;;;;;;;;;;;;;;;21.22;26.26;94148.09;1027784;28;1305;-49
2021/12/10 02:33:13;;;;;;;;;;;;;;;21.22;26.26;94148.09;1029083;28;1221;-50
2021/12/10 02:33:44;;;;;;;;;;;;;;;21.22;26.32;94153.34;1029457;28;1134;-52
2021/12/10 02:34:14;;;;;;;;;;;;;;;21.21;26.27;94147.31;1026612;28;1980;-49
2021/12/10 02:34:46;;;;;;;;;;;;;;;21.21;26.48;94139.41;1024861;28;967;-51
2021/12/10 02:35:17;;;;;;;;;;;;;;;21.21;26.19;94141.25;1028012;28;705;-52
2021/12/10 02:35:47;;;;;;;;;;;;;;;21.22;26.14;94140.97;1027662;28;1109;-49
2021/12/10 02:36:17;;;;;;;;;;;;;;;21.22;26.19;94134.91;1028085;28;1859;-51
2021/12/10 02:36:50;;;;;;;;;;;;;;;21.21;26.09;94136.75;1030019;28;1113;-52
2021/12/10 02:37:21;;;;;;;;;;;;;;;21.22;26.19;94132.28;1053327;22;2107;-46
2021/12/10 02:37:51;;;;;;;;;;;;;;;21.22;26.46;94132.28;1042957;28;1179;-48
2021/12/10 02:38:22;;;;;;;;;;;;;;;21.22;26.82;94135.69;1035517;28;1340;-47
2021/12/10 02:38:53;;;;;;;;;;;;;;;21.21;26.50;94133.34;1036089;28;1096;-48
2021/12/10 02:39:25;;;;;;;;;;;;;;;21.22;26.20;94129.63;1035467;28;1131;-50
2021/12/10 02:39:55;;;;;;;;;;;;;;;21.24;26.38;94132.72;1035893;28;1226;-53
2021/12/10 02:40:26;;;;;;;;;;;;;;;21.23;26.34;94133.81;1035802;28;1686;-52
2021/12/10 02:40:56;;;;;;;;;;;;;;;21.21;26.61;94126.22;1036455;28;1643;-48
2021/12/10 02:41:29;;;;;;;;;;;;;;;21.22;26.27;94125.16;1033149;28;1747;-48
2021/12/10 02:41:59;;;;;;;;;;;;;;;21.22;25.91;94124.38;1035972;28;1152;-51
2021/12/10 02:42:29;;;;;;;;;;;;;;;21.23;26.53;94128.53;1036363;28;1936;-50
2021/12/10 02:43:00;;;;;;;;;;;;;;;21.22;26.21;94121.72;1031036;28;1819;-49
2021/12/10 02:43:31;;;;;;;;;;;;;;;21.24;26.18;94124.81;1031316;28;1388;-48
2021/12/10 02:44:01;;;;;;;;;;;;;;;21.24;26.62;94124.81;1030941;28;1063;-49
2021/12/10 02:44:32;;;;;;;;;;;;;;;21.22;26.06;94121.72;1027632;28;1286;-52
2021/12/10 02:45:04;;;;;;;;;;;;;;;21.22;26.25;94122.50;1035922;28;1078;-50
2021/12/10 02:45:34;;;;;;;;;;;;;;;21.22;26.32;94121.72;1035444;28;1221;-49
2021/12/10 02:46:05;;;;;;;;;;;;;;;21.22;26.60;94122.50;1040088;28;1030;-51
2021/12/10 02:46:35;;;;;;;;;;;;;;;21.21;26.11;94114.91;1040645;28;2196;-49
2021/12/10 02:47:06;;;;;;;;;;;;;;;21.21;26.32;94114.91;1039831;28;1605;-50
2021/12/10 02:47:36;;;;;;;;;;;;;;;21.21;26.39;94110.41;1039713;28;1057;-47
2021/12/10 02:48:07;;;;;;;;;;;;;;;21.22;26.19;94106.69;1035917;28;1195;-52
2021/12/10 02:48:37;;;;;;;;;;;;;;;21.22;26.27;94105.91;1035664;28;1179;-49
2021/12/10 02:49:08;;;;;;;;;;;;;;;21.21;26.16;94107.00;1031822;28;733;-49
2021/12/10 02:49:38;;;;;;;;;;;;;;;21.21;26.41;94101.72;1033923;28;1620;-46
2021/12/10 02:50:09;;;;;;;;;;;;;;;21.22;26.35;94106.69;1031956;28;1507;-49
2021/12/10 02:50:40;;;;;;;;;;;;;;;21.22;26.18;94105.91;1031523;28;1199;-49
2021/12/10 02:51:10;;;;;;;;;;;;;;;21.22;26.22;94098.78;1033988;28;1850;-46
2021/12/10 02:51:40;;;;;;;;;;;;;;;21.23;26.35;94104.81;1031389;28;1603;-49
2021/12/10 02:52:11;;;;;;;;;;;;;;;21.21;26.47;94101.72;1031980;28;1380;-50
2021/12/10 02:52:41;;;;;;;;;;;;;;;21.22;26.90;94096.16;1031748;28;1137;-50
2021/12/10 02:53:14;;;;;;;;;;;;;;;21.23;26.12;94102.19;1031856;28;1148;-48
2021/12/10 02:53:46;;;;;;;;;;;;;;;21.23;26.09;94097.69;1032129;28;1175;-49
2021/12/10 02:54:21;;;;;;;;;;;;;;;21.22;26.43;94098.78;1033724;28;1988;-50
2021/12/10 02:54:52;;;;;;;;;;;;;;;21.21;26.15;94093.81;1034323;28;1726;-51
2021/12/10 02:55:22;;;;;;;;;;;;;;;21.22;26.15;94092.75;1036476;28;859;-48
2021/12/10 02:55:54;;;;;;;;;;;;;;;21.22;26.34;94090.13;1035870;28;1076;-48
2021/12/10 02:56:24;;;;;;;;;;;;;;;21.22;26.08;94096.16;1036717;28;1854;-48
2021/12/10 02:56:54;;;;;;;;;;;;;;;21.21;26.48;94091.97;1035863;28;1490;-47
2021/12/10 02:57:25;;;;;;;;;;;;;;;21.21;26.34;94091.97;1037165;28;1067;-47
2021/12/10 02:57:56;;;;;;;;;;;;;;;21.22;26.38;94090.88;1032371;28;1056;-47
2021/12/10 02:58:26;;;;;;;;;;;;;;;21.23;26.41;94091.63;1035742;28;753;-46
2021/12/10 02:58:59;;;;;;;;;;;;;;;21.22;26.40;94090.13;1035432;28;1184;-46
2021/12/10 02:59:29;;;;;;;;;;;;;;;21.23;26.28;94083.75;1035424;28;1050;-47
2021/12/10 02:59:59;;;;;;;;;;;;;;;21.23;26.39;94094.28;1035684;28;1159;-48
2021/12/10 03:00:30;;;;;;;;;;;;;;;21.21;26.23;94084.06;1036463;28;1131;-48
2021/12/10 03:01:12;;;;;;;;;;;;;;;21.21;26.46;94089.34;1036178;28;1097;-48
2021/12/10 03:01:48;;;;;;;;;;;;;;;21.22;26.04;94083.00;1034971;28;1631;-46
2021/12/10 03:02:20;;;;;;;;;;;;;;;21.23;27.24;94081.09;1035872;28;1369;-46
2021/12/10 03:02:50;;;;;;;;;;;;;;;21.23;26.55;94081.88;1035836;28;1117;-47
2021/12/10 03:03:20;;;;;;;;;;;;;;;21.23;26.49;94079.25;1035938;28;1245;-47